Airfield :
LOGIN :

Register | Disclaimer

   EN    FR    IT 

 










Legend :    VFR   Marginal VFR   IFR   Intensive IFR   Very Intensive IFR
Visi :
Ceiling :
>= 8 km
>= 3000ft
5 to 8 km
1000 to 3000 ft
1500m to 5 km
500 to 1000 ft
800 to 1500m
200 to 500 ft
< 800m
< 200 ft
Symbols :   Thunderstorms  Fog  Heavy snow  Heavy precipitations  Wind > 20 kt
SIGMETs :     Misc.  Thunderstorms  Icing  Turbulence  Mountain Waves  Volcanic Ashes






- Airport Elevation : 32 ft
- IATA code : LKZ


EGUL - RAF Lakenheath

CURRENT METAR :
  • 290544Z AUTO 32005KT 9999 SCT040 08/08 A3012 RMK AO2 DZB30E44 SLP203 $

EXPIRED METARs :
  • 290530Z AUTO 32007KT 9999 -DZ BKN040 BKN050 08/08 A3012 RMK AO2 DZB30 SLP203 $
  • 290456Z AUTO 30005KT 9999 BKN038 07/07 A3012 RMK AO2 DZB14E32 SLP203 P0000 T00690068 $
  • 290432Z AUTO 31006KT 9999 SCT038 BKN048 07/07 A3013 RMK AO2 DZB14E32 SLP207 $
  • 290414Z AUTO 31006KT 9999 -DZ SCT040 BKN049 07/07 A3013 RMK AO2 DZB14 SLP207 $
  • 290356Z AUTO 31009KT 9999 BKN038 07/07 A3013 RMK AO2 SLP207 T00710070 $
  • 290256Z AUTO 29007KT 9999 OVC047 07/07 A3014 RMK AO2 SLP210 T00670066 57014 $

Expired Forecast.



MET'MAP, your aeronautical weather chart ! - Copyright ORBIFLY December 2007 - Disclaimer

ORBIFLY MET'MAP TEAM :

Programming & Development : Alexandra Zaïnal
Original concept : Baudouin d'Aumeries
Technical & hardware support : Manuel Goepfert
Assistance : Marc-Olivier Méhu

Contact : metmap@orbifly.com




SOURCES & CREDITS :

   NOAA